sensor_id;sensor_type;location;lat;lon;timestamp;P1;durP1;ratioP1;P2;durP2;ratioP2
13218;SDS011;6674;49.152;11.918;2022-08-11T00:01:10;2.03;;;1.93;;
13218;SDS011;6674;49.152;11.918;2022-08-11T00:03:44;2.10;;;2.00;;
13218;SDS011;6674;49.152;11.918;2022-08-11T00:06:12;2.10;;;1.90;;
13218;SDS011;6674;49.152;11.918;2022-08-11T00:08:41;2.33;;;2.13;;
13218;SDS011;6674;49.152;11.918;2022-08-11T00:11:09;1.80;;;1.70;;
13218;SDS011;6674;49.152;11.918;2022-08-11T00:13:38;1.97;;;1.87;;
13218;SDS011;6674;49.152;11.918;2022-08-11T00:16:10;2.00;;;1.80;;
13218;SDS011;6674;49.152;11.918;2022-08-11T00:18:38;2.00;;;1.90;;
13218;SDS011;6674;49.152;11.918;2022-08-11T00:21:07;2.30;;;2.20;;
13218;SDS011;6674;49.152;11.918;2022-08-11T00:23:38;2.00;;;1.90;;
13218;SDS011;6674;49.152;11.918;2022-08-11T00:26:07;2.23;;;2.00;;
13218;SDS011;6674;49.152;11.918;2022-08-11T00:28:34;2.20;;;2.00;;
13218;SDS011;6674;49.152;11.918;2022-08-11T00:31:04;2.10;;;2.00;;
13218;SDS011;6674;49.152;11.918;2022-08-11T00:33:33;2.17;;;1.90;;
13218;SDS011;6674;49.152;11.918;2022-08-11T00:36:03;1.70;;;1.60;;
13218;SDS011;6674;49.152;11.918;2022-08-11T00:38:33;1.90;;;1.80;;
13218;SDS011;6674;49.152;11.918;2022-08-11T00:41:03;2.20;;;2.00;;
13218;SDS011;6674;49.152;11.918;2022-08-11T00:44:03;1.90;;;1.80;;
13218;SDS011;6674;49.152;11.918;2022-08-11T00:46:41;2.10;;;1.90;;
13218;SDS011;6674;49.152;11.918;2022-08-11T00:49:19;2.00;;;1.90;;
13218;SDS011;6674;49.152;11.918;2022-08-11T00:51:56;2.13;;;2.00;;
13218;SDS011;6674;49.152;11.918;2022-08-11T00:57:42;1.80;;;1.70;;
13218;SDS011;6674;49.152;11.918;2022-08-11T01:00:22;1.97;;;1.87;;
13218;SDS011;6674;49.152;11.918;2022-08-11T01:03:02;2.30;;;2.10;;
13218;SDS011;6674;49.152;11.918;2022-08-11T01:08:56;2.10;;;2.00;;
13218;SDS011;6674;49.152;11.918;2022-08-11T01:11:55;1.97;;;1.87;;
13218;SDS011;6674;49.152;11.918;2022-08-11T01:14:43;2.10;;;1.90;;
13218;SDS011;6674;49.152;11.918;2022-08-11T01:21:02;1.80;;;1.70;;
13218;SDS011;6674;49.152;11.918;2022-08-11T01:24:00;2.00;;;1.90;;
13218;SDS011;6674;49.152;11.918;2022-08-11T01:27:05;1.90;;;1.80;;
13218;SDS011;6674;49.152;11.918;2022-08-11T01:33:07;2.63;;;1.97;;
13218;SDS011;6674;49.152;11.918;2022-08-11T01:36:04;1.80;;;1.70;;
13218;SDS011;6674;49.152;11.918;2022-08-11T01:42:03;2.00;;;1.90;;
13218;SDS011;6674;49.152;11.918;2022-08-11T01:45:06;1.90;;;1.80;;
13218;SDS011;6674;49.152;11.918;2022-08-11T01:47:44;2.00;;;1.90;;
13218;SDS011;6674;49.152;11.918;2022-08-11T01:50:26;2.20;;;2.10;;
13218;SDS011;6674;49.152;11.918;2022-08-11T01:53:09;2.63;;;2.10;;
13218;SDS011;6674;49.152;11.918;2022-08-11T01:55:48;1.90;;;1.80;;
13218;SDS011;6674;49.152;11.918;2022-08-11T01:58:25;2.57;;;2.37;;
13218;SDS011;6674;49.152;11.918;2022-08-11T02:01:01;2.20;;;2.00;;
13218;SDS011;6674;49.152;11.918;2022-08-11T02:03:42;1.83;;;1.73;;
13218;SDS011;6674;49.152;11.918;2022-08-11T02:06:17;2.00;;;1.80;;
13218;SDS011;6674;49.152;11.918;2022-08-11T02:09:15;2.43;;;2.00;;
13218;SDS011;6674;49.152;11.918;2022-08-11T02:11:50;2.40;;;2.20;;
13218;SDS011;6674;49.152;11.918;2022-08-11T02:14:23;3.03;;;2.07;;
13218;SDS011;6674;49.152;11.918;2022-08-11T02:16:57;1.80;;;1.70;;
13218;SDS011;6674;49.152;11.918;2022-08-11T02:19:37;2.10;;;2.00;;
13218;SDS011;6674;49.152;11.918;2022-08-11T02:22:34;2.07;;;1.93;;
13218;SDS011;6674;49.152;11.918;2022-08-11T02:25:28;2.37;;;2.17;;
13218;SDS011;6674;49.152;11.918;2022-08-11T02:28:00;2.30;;;2.00;;
13218;SDS011;6674;49.152;11.918;2022-08-11T02:30:34;2.37;;;2.17;;
13218;SDS011;6674;49.152;11.918;2022-08-11T02:33:08;2.93;;;1.83;;
13218;SDS011;6674;49.152;11.918;2022-08-11T02:35:55;3.17;;;2.30;;
13218;SDS011;6674;49.152;11.918;2022-08-11T02:38:29;2.20;;;2.00;;
13218;SDS011;6674;49.152;11.918;2022-08-11T02:41:04;2.33;;;2.13;;
13218;SDS011;6674;49.152;11.918;2022-08-11T02:43:51;2.40;;;2.20;;
13218;SDS011;6674;49.152;11.918;2022-08-11T02:46:36;2.57;;;2.13;;
13218;SDS011;6674;49.152;11.918;2022-08-11T02:49:13;2.30;;;2.20;;
13218;SDS011;6674;49.152;11.918;2022-08-11T02:52:18;1.70;;;1.60;;
13218;SDS011;6674;49.152;11.918;2022-08-11T02:54:51;2.07;;;1.97;;
13218;SDS011;6674;49.152;11.918;2022-08-11T02:57:29;2.27;;;2.10;;
13218;SDS011;6674;49.152;11.918;2022-08-11T03:00:04;2.03;;;1.93;;
13218;SDS011;6674;49.152;11.918;2022-08-11T03:02:39;1.90;;;1.80;;
13218;SDS011;6674;49.152;11.918;2022-08-11T03:05:17;2.83;;;2.30;;
13218;SDS011;6674;49.152;11.918;2022-08-11T03:07:59;2.10;;;2.00;;
13218;SDS011;6674;49.152;11.918;2022-08-11T03:10:35;2.23;;;1.87;;
13218;SDS011;6674;49.152;11.918;2022-08-11T03:13:35;2.27;;;2.07;;
13218;SDS011;6674;49.152;11.918;2022-08-11T03:16:24;2.27;;;2.10;;
13218;SDS011;6674;49.152;11.918;2022-08-11T03:19:15;2.33;;;2.20;;
13218;SDS011;6674;49.152;11.918;2022-08-11T03:21:50;2.43;;;2.20;;
13218;SDS011;6674;49.152;11.918;2022-08-11T03:24:28;2.30;;;2.10;;
13218;SDS011;6674;49.152;11.918;2022-08-11T03:27:02;2.40;;;2.20;;
13218;SDS011;6674;49.152;11.918;2022-08-11T03:29:39;2.83;;;2.63;;
13218;SDS011;6674;49.152;11.918;2022-08-11T03:32:10;2.40;;;2.20;;
13218;SDS011;6674;49.152;11.918;2022-08-11T03:34:49;2.47;;;2.27;;
13218;SDS011;6674;49.152;11.918;2022-08-11T03:37:24;2.40;;;2.20;;
13218;SDS011;6674;49.152;11.918;2022-08-11T03:40:17;2.23;;;2.10;;
13218;SDS011;6674;49.152;11.918;2022-08-11T03:43:17;2.60;;;2.40;;
13218;SDS011;6674;49.152;11.918;2022-08-11T03:45:56;2.60;;;2.40;;
13218;SDS011;6674;49.152;11.918;2022-08-11T03:48:36;2.40;;;2.20;;
13218;SDS011;6674;49.152;11.918;2022-08-11T03:51:12;2.67;;;2.23;;
13218;SDS011;6674;49.152;11.918;2022-08-11T03:53:47;2.30;;;2.10;;
13218;SDS011;6674;49.152;11.918;2022-08-11T03:56:28;2.50;;;2.30;;
13218;SDS011;6674;49.152;11.918;2022-08-11T03:59:40;2.10;;;2.00;;
13218;SDS011;6674;49.152;11.918;2022-08-11T04:02:42;2.10;;;2.00;;
13218;SDS011;6674;49.152;11.918;2022-08-11T04:05:26;2.13;;;2.00;;
13218;SDS011;6674;49.152;11.918;2022-08-11T04:08:19;2.60;;;2.40;;
13218;SDS011;6674;49.152;11.918;2022-08-11T04:11:10;2.60;;;2.40;;
13218;SDS011;6674;49.152;11.918;2022-08-11T04:17:37;2.20;;;2.10;;
13218;SDS011;6674;49.152;11.918;2022-08-11T04:23:39;2.30;;;2.20;;
13218;SDS011;6674;49.152;11.918;2022-08-11T04:29:21;2.20;;;2.10;;
13218;SDS011;6674;49.152;11.918;2022-08-11T04:32:03;2.60;;;2.40;;
13218;SDS011;6674;49.152;11.918;2022-08-11T04:34:50;2.70;;;2.23;;
13218;SDS011;6674;49.152;11.918;2022-08-11T04:37:33;2.37;;;2.17;;
13218;SDS011;6674;49.152;11.918;2022-08-11T04:40:11;2.30;;;2.20;;
13218;SDS011;6674;49.152;11.918;2022-08-11T04:49:18;2.80;;;2.60;;
13218;SDS011;6674;49.152;11.918;2022-08-11T04:58:50;2.77;;;2.57;;
13218;SDS011;6674;49.152;11.918;2022-08-11T05:01:49;2.70;;;2.50;;
13218;SDS011;6674;49.152;11.918;2022-08-11T05:04:47;2.30;;;2.20;;
13218;SDS011;6674;49.152;11.918;2022-08-11T05:10:50;2.80;;;2.60;;
13218;SDS011;6674;49.152;11.918;2022-08-11T05:13:26;2.27;;;2.13;;
13218;SDS011;6674;49.152;11.918;2022-08-11T05:16:12;2.43;;;2.23;;
13218;SDS011;6674;49.152;11.918;2022-08-11T05:19:01;2.57;;;2.37;;
13218;SDS011;6674;49.152;11.918;2022-08-11T05:21:47;2.93;;;2.20;;
13218;SDS011;6674;49.152;11.918;2022-08-11T05:24:36;2.50;;;2.40;;
13218;SDS011;6674;49.152;11.918;2022-08-11T05:27:29;4.03;;;2.40;;
13218;SDS011;6674;49.152;11.918;2022-08-11T05:30:18;2.87;;;2.33;;
13218;SDS011;6674;49.152;11.918;2022-08-11T05:33:08;2.30;;;2.20;;
13218;SDS011;6674;49.152;11.918;2022-08-11T05:35:59;2.20;;;2.10;;
13218;SDS011;6674;49.152;11.918;2022-08-11T05:38:33;2.60;;;2.40;;
13218;SDS011;6674;49.152;11.918;2022-08-11T05:41:19;2.83;;;2.53;;
13218;SDS011;6674;49.152;11.918;2022-08-11T05:44:07;2.50;;;2.40;;
13218;SDS011;6674;49.152;11.918;2022-08-11T05:46:53;3.13;;;2.83;;
13218;SDS011;6674;49.152;11.918;2022-08-11T05:49:38;3.43;;;2.60;;
13218;SDS011;6674;49.152;11.918;2022-08-11T05:52:25;2.90;;;2.70;;
13218;SDS011;6674;49.152;11.918;2022-08-11T05:55:11;3.07;;;2.53;;
13218;SDS011;6674;49.152;11.918;2022-08-11T05:57:58;3.13;;;2.73;;
13218;SDS011;6674;49.152;11.918;2022-08-11T06:00:29;2.90;;;2.53;;
13218;SDS011;6674;49.152;11.918;2022-08-11T06:02:59;3.33;;;2.70;;
13218;SDS011;6674;49.152;11.918;2022-08-11T06:05:31;2.90;;;2.70;;
13218;SDS011;6674;49.152;11.918;2022-08-11T06:07:59;2.80;;;2.60;;
13218;SDS011;6674;49.152;11.918;2022-08-11T06:10:28;2.70;;;2.50;;
13218;SDS011;6674;49.152;11.918;2022-08-11T06:12:58;2.93;;;2.63;;
13218;SDS011;6674;49.152;11.918;2022-08-11T06:15:26;3.17;;;2.70;;
13218;SDS011;6674;49.152;11.918;2022-08-11T06:17:55;2.73;;;2.53;;
13218;SDS011;6674;49.152;11.918;2022-08-11T06:20:26;4.20;;;2.70;;
13218;SDS011;6674;49.152;11.918;2022-08-11T06:22:59;4.03;;;2.90;;
13218;SDS011;6674;49.152;11.918;2022-08-11T06:25:29;3.03;;;2.60;;
13218;SDS011;6674;49.152;11.918;2022-08-11T06:27:56;3.03;;;2.73;;
13218;SDS011;6674;49.152;11.918;2022-08-11T06:30:31;2.50;;;2.33;;
13218;SDS011;6674;49.152;11.918;2022-08-11T06:33:05;2.90;;;2.70;;
13218;SDS011;6674;49.152;11.918;2022-08-11T06:35:35;3.00;;;2.80;;
13218;SDS011;6674;49.152;11.918;2022-08-11T06:38:13;3.07;;;2.50;;
13218;SDS011;6674;49.152;11.918;2022-08-11T06:40:45;2.87;;;2.60;;
13218;SDS011;6674;49.152;11.918;2022-08-11T06:43:30;2.67;;;2.47;;
13218;SDS011;6674;49.152;11.918;2022-08-11T06:46:10;3.17;;;2.97;;
13218;SDS011;6674;49.152;11.918;2022-08-11T06:48:41;2.60;;;2.40;;
13218;SDS011;6674;49.152;11.918;2022-08-11T06:51:09;3.50;;;2.60;;
13218;SDS011;6674;49.152;11.918;2022-08-11T06:53:41;3.27;;;3.00;;
13218;SDS011;6674;49.152;11.918;2022-08-11T06:56:10;2.90;;;2.70;;
13218;SDS011;6674;49.152;11.918;2022-08-11T06:58:55;3.10;;;2.90;;
13218;SDS011;6674;49.152;11.918;2022-08-11T07:01:42;2.50;;;2.40;;
13218;SDS011;6674;49.152;11.918;2022-08-11T07:04:26;2.87;;;2.67;;
13218;SDS011;6674;49.152;11.918;2022-08-11T07:07:00;2.50;;;2.30;;
13218;SDS011;6674;49.152;11.918;2022-08-11T07:13:11;2.83;;;2.63;;
13218;SDS011;6674;49.152;11.918;2022-08-11T07:15:59;3.03;;;2.57;;
13218;SDS011;6674;49.152;11.918;2022-08-11T07:18:26;2.83;;;2.63;;
13218;SDS011;6674;49.152;11.918;2022-08-11T07:21:14;3.90;;;2.87;;
13218;SDS011;6674;49.152;11.918;2022-08-11T07:24:02;2.70;;;2.50;;
13218;SDS011;6674;49.152;11.918;2022-08-11T07:26:54;3.10;;;2.90;;
13218;SDS011;6674;49.152;11.918;2022-08-11T07:29:39;2.90;;;2.70;;
13218;SDS011;6674;49.152;11.918;2022-08-11T07:32:12;3.60;;;2.80;;
13218;SDS011;6674;49.152;11.918;2022-08-11T07:34:44;3.00;;;2.80;;
13218;SDS011;6674;49.152;11.918;2022-08-11T07:37:15;2.87;;;2.67;;
13218;SDS011;6674;49.152;11.918;2022-08-11T07:39:46;2.80;;;2.60;;
13218;SDS011;6674;49.152;11.918;2022-08-11T07:42:14;3.50;;;2.80;;
13218;SDS011;6674;49.152;11.918;2022-08-11T07:44:46;2.70;;;2.50;;
13218;SDS011;6674;49.152;11.918;2022-08-11T07:47:30;2.83;;;2.63;;
13218;SDS011;6674;49.152;11.918;2022-08-11T07:50:17;2.70;;;2.37;;
13218;SDS011;6674;49.152;11.918;2022-08-11T07:53:03;3.03;;;2.83;;
13218;SDS011;6674;49.152;11.918;2022-08-11T07:55:30;2.70;;;2.50;;
13218;SDS011;6674;49.152;11.918;2022-08-11T07:57:58;2.30;;;2.20;;
13218;SDS011;6674;49.152;11.918;2022-08-11T08:00:43;2.70;;;2.50;;
13218;SDS011;6674;49.152;11.918;2022-08-11T08:03:29;2.53;;;2.33;;
13218;SDS011;6674;49.152;11.918;2022-08-11T08:06:14;2.70;;;2.50;;
13218;SDS011;6674;49.152;11.918;2022-08-11T08:09:00;2.93;;;2.60;;
13218;SDS011;6674;49.152;11.918;2022-08-11T08:11:45;2.47;;;2.23;;
13218;SDS011;6674;49.152;11.918;2022-08-11T08:14:30;3.70;;;2.37;;
13218;SDS011;6674;49.152;11.918;2022-08-11T08:17:15;2.63;;;2.40;;
13218;SDS011;6674;49.152;11.918;2022-08-11T08:19:59;2.53;;;2.43;;
13218;SDS011;6674;49.152;11.918;2022-08-11T08:22:27;2.60;;;2.40;;
13218;SDS011;6674;49.152;11.918;2022-08-11T08:24:56;3.43;;;2.40;;
13218;SDS011;6674;49.152;11.918;2022-08-11T08:27:24;2.50;;;2.40;;
13218;SDS011;6674;49.152;11.918;2022-08-11T08:29:51;2.50;;;2.40;;
13218;SDS011;6674;49.152;11.918;2022-08-11T08:32:37;2.90;;;2.60;;
13218;SDS011;6674;49.152;11.918;2022-08-11T08:35:05;2.57;;;2.37;;
13218;SDS011;6674;49.152;11.918;2022-08-11T08:37:33;3.67;;;2.60;;
13218;SDS011;6674;49.152;11.918;2022-08-11T08:40:01;2.60;;;2.40;;
13218;SDS011;6674;49.152;11.918;2022-08-11T08:42:29;3.00;;;2.70;;
13218;SDS011;6674;49.152;11.918;2022-08-11T08:45:02;2.43;;;2.23;;
13218;SDS011;6674;49.152;11.918;2022-08-11T08:47:34;2.37;;;2.17;;
13218;SDS011;6674;49.152;11.918;2022-08-11T08:50:03;2.43;;;2.33;;
13218;SDS011;6674;49.152;11.918;2022-08-11T08:52:33;2.87;;;2.50;;
13218;SDS011;6674;49.152;11.918;2022-08-11T08:55:06;2.13;;;1.97;;
13218;SDS011;6674;49.152;11.918;2022-08-11T08:57:37;2.50;;;2.30;;
13218;SDS011;6674;49.152;11.918;2022-08-11T09:00:06;2.43;;;2.30;;
13218;SDS011;6674;49.152;11.918;2022-08-11T09:02:34;2.00;;;1.90;;
13218;SDS011;6674;49.152;11.918;2022-08-11T09:05:02;2.07;;;1.97;;
13218;SDS011;6674;49.152;11.918;2022-08-11T09:07:30;2.60;;;2.03;;
13218;SDS011;6674;49.152;11.918;2022-08-11T09:09:57;2.03;;;1.87;;
13218;SDS011;6674;49.152;11.918;2022-08-11T09:12:27;2.10;;;1.90;;
13218;SDS011;6674;49.152;11.918;2022-08-11T09:14:55;1.97;;;1.80;;
13218;SDS011;6674;49.152;11.918;2022-08-11T09:17:29;2.50;;;2.00;;
13218;SDS011;6674;49.152;11.918;2022-08-11T09:20:02;2.43;;;2.27;;
13218;SDS011;6674;49.152;11.918;2022-08-11T09:22:31;2.37;;;2.17;;
13218;SDS011;6674;49.152;11.918;2022-08-11T09:25:17;2.37;;;2.17;;
13218;SDS011;6674;49.152;11.918;2022-08-11T09:28:01;1.97;;;1.80;;
13218;SDS011;6674;49.152;11.918;2022-08-11T09:30:30;1.83;;;1.73;;
13218;SDS011;6674;49.152;11.918;2022-08-11T09:32:57;2.07;;;1.87;;
13218;SDS011;6674;49.152;11.918;2022-08-11T09:35:25;2.40;;;2.20;;
13218;SDS011;6674;49.152;11.918;2022-08-11T09:37:52;2.38;;;2.05;;
13218;SDS011;6674;49.152;11.918;2022-08-11T09:40:39;2.38;;;2.17;;
13218;SDS011;6674;49.152;11.918;2022-08-11T09:43:10;2.08;;;1.98;;
13218;SDS011;6674;49.152;11.918;2022-08-11T09:45:56;3.10;;;2.30;;
13218;SDS011;6674;49.152;11.918;2022-08-11T09:48:25;2.70;;;2.22;;
13218;SDS011;6674;49.152;11.918;2022-08-11T09:50:53;2.55;;;1.52;;
13218;SDS011;6674;49.152;11.918;2022-08-11T09:53:22;2.45;;;1.83;;
13218;SDS011;6674;49.152;11.918;2022-08-11T09:55:50;1.75;;;1.65;;
13218;SDS011;6674;49.152;11.918;2022-08-11T09:58:19;1.55;;;1.45;;
13218;SDS011;6674;49.152;11.918;2022-08-11T10:00:47;2.50;;;1.60;;
13218;SDS011;6674;49.152;11.918;2022-08-11T10:03:15;1.77;;;1.67;;
13218;SDS011;6674;49.152;11.918;2022-08-11T10:05:45;1.90;;;1.80;;
13218;SDS011;6674;49.152;11.918;2022-08-11T10:08:30;1.60;;;1.50;;
13218;SDS011;6674;49.152;11.918;2022-08-11T10:11:00;2.20;;;1.88;;
13218;SDS011;6674;49.152;11.918;2022-08-11T10:13:30;2.63;;;2.05;;
13218;SDS011;6674;49.152;11.918;2022-08-11T10:16:19;2.88;;;1.80;;
13218;SDS011;6674;49.152;11.918;2022-08-11T10:18:48;3.10;;;1.90;;
13218;SDS011;6674;49.152;11.918;2022-08-11T10:21:27;2.55;;;2.00;;
13218;SDS011;6674;49.152;11.918;2022-08-11T10:23:59;1.50;;;1.40;;
13218;SDS011;6674;49.152;11.918;2022-08-11T10:26:44;1.90;;;1.80;;
13218;SDS011;6674;49.152;11.918;2022-08-11T10:29:26;1.80;;;1.70;;
13218;SDS011;6674;49.152;11.918;2022-08-11T10:32:16;1.60;;;1.50;;
13218;SDS011;6674;49.152;11.918;2022-08-11T10:35:03;2.65;;;1.83;;
13218;SDS011;6674;49.152;11.918;2022-08-11T10:37:33;2.17;;;1.70;;
13218;SDS011;6674;49.152;11.918;2022-08-11T10:40:02;2.10;;;1.90;;
13218;SDS011;6674;49.152;11.918;2022-08-11T10:42:33;1.90;;;1.80;;
13218;SDS011;6674;49.152;11.918;2022-08-11T10:45:20;1.80;;;1.70;;
13218;SDS011;6674;49.152;11.918;2022-08-11T10:48:06;2.10;;;1.90;;
13218;SDS011;6674;49.152;11.918;2022-08-11T10:50:34;2.05;;;1.55;;
13218;SDS011;6674;49.152;11.918;2022-08-11T10:53:19;1.05;;;1.05;;
13218;SDS011;6674;49.152;11.918;2022-08-11T10:56:04;1.73;;;1.35;;
13218;SDS011;6674;49.152;11.918;2022-08-11T10:58:50;1.50;;;1.35;;
13218;SDS011;6674;49.152;11.918;2022-08-11T11:01:21;3.67;;;1.88;;
13218;SDS011;6674;49.152;11.918;2022-08-11T11:03:50;1.40;;;1.30;;
13218;SDS011;6674;49.152;11.918;2022-08-11T11:06:22;1.50;;;1.40;;
13218;SDS011;6674;49.152;11.918;2022-08-11T11:08:55;1.70;;;1.60;;
13218;SDS011;6674;49.152;11.918;2022-08-11T11:11:26;1.58;;;1.48;;
13218;SDS011;6674;49.152;11.918;2022-08-11T11:14:09;1.65;;;1.55;;
13218;SDS011;6674;49.152;11.918;2022-08-11T11:16:56;1.70;;;1.60;;
13218;SDS011;6674;49.152;11.918;2022-08-11T11:19:41;1.42;;;1.33;;
13218;SDS011;6674;49.152;11.918;2022-08-11T11:22:09;2.10;;;1.67;;
13218;SDS011;6674;49.152;11.918;2022-08-11T11:24:59;1.63;;;1.52;;
13218;SDS011;6674;49.152;11.918;2022-08-11T11:27:34;1.50;;;1.40;;
13218;SDS011;6674;49.152;11.918;2022-08-11T11:30:11;1.65;;;1.40;;
13218;SDS011;6674;49.152;11.918;2022-08-11T11:32:43;1.60;;;1.30;;
13218;SDS011;6674;49.152;11.918;2022-08-11T11:35:22;1.33;;;1.23;;
13218;SDS011;6674;49.152;11.918;2022-08-11T11:37:55;1.23;;;1.13;;
13218;SDS011;6674;49.152;11.918;2022-08-11T11:40:24;2.40;;;1.27;;
13218;SDS011;6674;49.152;11.918;2022-08-11T11:42:54;1.20;;;1.17;;
13218;SDS011;6674;49.152;11.918;2022-08-11T11:45:22;1.30;;;1.10;;
13218;SDS011;6674;49.152;11.918;2022-08-11T11:47:52;1.50;;;1.40;;
13218;SDS011;6674;49.152;11.918;2022-08-11T11:50:23;1.10;;;1.10;;
13218;SDS011;6674;49.152;11.918;2022-08-11T11:52:51;1.52;;;1.42;;
13218;SDS011;6674;49.152;11.918;2022-08-11T11:55:20;1.45;;;1.30;;
13218;SDS011;6674;49.152;11.918;2022-08-11T11:57:50;2.05;;;1.40;;
13218;SDS011;6674;49.152;11.918;2022-08-11T12:00:37;1.30;;;1.20;;
13218;SDS011;6674;49.152;11.918;2022-08-11T12:03:25;2.38;;;1.33;;
13218;SDS011;6674;49.152;11.918;2022-08-11T12:05:55;1.25;;;1.10;;
13218;SDS011;6674;49.152;11.918;2022-08-11T12:08:22;1.40;;;1.30;;
13218;SDS011;6674;49.152;11.918;2022-08-11T12:10:50;1.60;;;1.20;;
13218;SDS011;6674;49.152;11.918;2022-08-11T12:13:40;1.73;;;1.63;;
13218;SDS011;6674;49.152;11.918;2022-08-11T12:16:08;1.40;;;1.30;;
13218;SDS011;6674;49.152;11.918;2022-08-11T12:18:37;1.00;;;1.00;;
13218;SDS011;6674;49.152;11.918;2022-08-11T12:21:07;1.42;;;1.33;;
13218;SDS011;6674;49.152;11.918;2022-08-11T12:23:35;1.50;;;1.40;;
13218;SDS011;6674;49.152;11.918;2022-08-11T12:26:21;0.90;;;0.90;;
13218;SDS011;6674;49.152;11.918;2022-08-11T12:29:19;1.42;;;1.20;;
13218;SDS011;6674;49.152;11.918;2022-08-11T12:31:51;1.30;;;1.20;;
13218;SDS011;6674;49.152;11.918;2022-08-11T12:34:20;1.88;;;1.25;;
13218;SDS011;6674;49.152;11.918;2022-08-11T12:36:49;1.10;;;1.10;;
13218;SDS011;6674;49.152;11.918;2022-08-11T12:39:19;0.93;;;0.93;;
13218;SDS011;6674;49.152;11.918;2022-08-11T12:42:09;1.77;;;1.27;;
13218;SDS011;6674;49.152;11.918;2022-08-11T12:44:54;1.08;;;1.08;;
13218;SDS011;6674;49.152;11.918;2022-08-11T12:47:41;1.40;;;1.30;;
13218;SDS011;6674;49.152;11.918;2022-08-11T12:50:26;1.25;;;1.20;;
13218;SDS011;6674;49.152;11.918;2022-08-11T12:53:10;1.10;;;1.10;;
13218;SDS011;6674;49.152;11.918;2022-08-11T12:55:39;1.33;;;1.23;;
13218;SDS011;6674;49.152;11.918;2022-08-11T12:58:24;1.40;;;1.30;;
13218;SDS011;6674;49.152;11.918;2022-08-11T13:00:53;1.13;;;1.10;;
13218;SDS011;6674;49.152;11.918;2022-08-11T13:03:39;1.40;;;1.30;;
13218;SDS011;6674;49.152;11.918;2022-08-11T13:06:26;1.10;;;1.10;;
13218;SDS011;6674;49.152;11.918;2022-08-11T13:08:55;1.38;;;1.27;;
13218;SDS011;6674;49.152;11.918;2022-08-11T13:11:24;1.50;;;1.40;;
13218;SDS011;6674;49.152;11.918;2022-08-11T13:14:09;1.25;;;1.15;;
13218;SDS011;6674;49.152;11.918;2022-08-11T13:16:37;1.55;;;1.42;;
13218;SDS011;6674;49.152;11.918;2022-08-11T13:19:18;1.95;;;1.45;;
13218;SDS011;6674;49.152;11.918;2022-08-11T13:21:47;1.55;;;1.45;;
13218;SDS011;6674;49.152;11.918;2022-08-11T13:24:15;1.10;;;1.10;;
13218;SDS011;6674;49.152;11.918;2022-08-11T13:26:43;1.10;;;1.10;;
13218;SDS011;6674;49.152;11.918;2022-08-11T13:29:10;1.17;;;1.17;;
13218;SDS011;6674;49.152;11.918;2022-08-11T13:31:40;1.10;;;1.10;;
13218;SDS011;6674;49.152;11.918;2022-08-11T13:34:08;1.55;;;1.45;;
13218;SDS011;6674;49.152;11.918;2022-08-11T13:36:35;1.63;;;1.17;;
13218;SDS011;6674;49.152;11.918;2022-08-11T13:39:04;1.38;;;1.27;;
13218;SDS011;6674;49.152;11.918;2022-08-11T13:41:30;3.83;;;1.52;;
13218;SDS011;6674;49.152;11.918;2022-08-11T13:44:03;1.10;;;1.10;;
13218;SDS011;6674;49.152;11.918;2022-08-11T13:46:31;1.45;;;1.35;;
13218;SDS011;6674;49.152;11.918;2022-08-11T13:48:58;1.10;;;1.00;;
13218;SDS011;6674;49.152;11.918;2022-08-11T13:51:26;1.63;;;1.42;;
13218;SDS011;6674;49.152;11.918;2022-08-11T13:53:58;1.90;;;1.27;;
13218;SDS011;6674;49.152;11.918;2022-08-11T13:56:28;1.42;;;1.33;;
13218;SDS011;6674;49.152;11.918;2022-08-11T13:58:56;1.13;;;1.00;;
13218;SDS011;6674;49.152;11.918;2022-08-11T14:01:25;2.00;;;1.77;;
13218;SDS011;6674;49.152;11.918;2022-08-11T14:03:54;1.75;;;1.60;;
13218;SDS011;6674;49.152;11.918;2022-08-11T14:06:28;1.48;;;1.42;;
13218;SDS011;6674;49.152;11.918;2022-08-11T14:08:55;1.35;;;1.10;;
13218;SDS011;6674;49.152;11.918;2022-08-11T14:11:23;1.85;;;1.65;;
13218;SDS011;6674;49.152;11.918;2022-08-11T14:14:12;1.00;;;1.00;;
13218;SDS011;6674;49.152;11.918;2022-08-11T14:16:44;1.27;;;1.15;;
13218;SDS011;6674;49.152;11.918;2022-08-11T14:19:13;1.92;;;1.67;;
13218;SDS011;6674;49.152;11.918;2022-08-11T14:21:42;1.55;;;1.45;;
13218;SDS011;6674;49.152;11.918;2022-08-11T14:24:27;1.55;;;1.45;;
13218;SDS011;6674;49.152;11.918;2022-08-11T14:26:54;1.55;;;1.35;;
13218;SDS011;6674;49.152;11.918;2022-08-11T14:29:24;1.10;;;1.10;;
13218;SDS011;6674;49.152;11.918;2022-08-11T14:31:53;1.30;;;1.20;;
13218;SDS011;6674;49.152;11.918;2022-08-11T14:34:22;1.38;;;1.20;;
13218;SDS011;6674;49.152;11.918;2022-08-11T14:36:52;1.27;;;1.27;;
13218;SDS011;6674;49.152;11.918;2022-08-11T14:39:21;2.05;;;1.77;;
13218;SDS011;6674;49.152;11.918;2022-08-11T14:41:52;2.25;;;1.45;;
13218;SDS011;6674;49.152;11.918;2022-08-11T14:44:44;1.50;;;1.40;;
13218;SDS011;6674;49.152;11.918;2022-08-11T14:47:29;2.05;;;1.40;;
13218;SDS011;6674;49.152;11.918;2022-08-11T14:50:00;1.40;;;1.30;;
13218;SDS011;6674;49.152;11.918;2022-08-11T14:52:28;1.40;;;1.30;;
13218;SDS011;6674;49.152;11.918;2022-08-11T14:54:59;1.60;;;1.50;;
13218;SDS011;6674;49.152;11.918;2022-08-11T14:57:45;1.42;;;1.30;;
13218;SDS011;6674;49.152;11.918;2022-08-11T15:00:14;1.20;;;1.10;;
13218;SDS011;6674;49.152;11.918;2022-08-11T15:02:44;1.17;;;1.17;;
13218;SDS011;6674;49.152;11.918;2022-08-11T15:05:30;1.27;;;1.27;;
13218;SDS011;6674;49.152;11.918;2022-08-11T15:07:57;1.40;;;1.30;;
13218;SDS011;6674;49.152;11.918;2022-08-11T15:10:25;1.50;;;1.38;;
13218;SDS011;6674;49.152;11.918;2022-08-11T15:12:53;1.42;;;1.33;;
13218;SDS011;6674;49.152;11.918;2022-08-11T15:15:23;1.20;;;1.10;;
13218;SDS011;6674;49.152;11.918;2022-08-11T15:18:09;1.40;;;1.33;;
13218;SDS011;6674;49.152;11.918;2022-08-11T15:20:39;1.63;;;1.30;;
13218;SDS011;6674;49.152;11.918;2022-08-11T15:23:24;1.50;;;1.40;;
13218;SDS011;6674;49.152;11.918;2022-08-11T15:26:09;1.38;;;1.30;;
13218;SDS011;6674;49.152;11.918;2022-08-11T15:28:47;2.17;;;1.45;;
13218;SDS011;6674;49.152;11.918;2022-08-11T15:31:35;1.58;;;1.48;;
13218;SDS011;6674;49.152;11.918;2022-08-11T15:34:20;2.60;;;1.33;;
13218;SDS011;6674;49.152;11.918;2022-08-11T15:37:08;1.60;;;1.50;;
13218;SDS011;6674;49.152;11.918;2022-08-11T15:39:56;1.77;;;1.60;;
13218;SDS011;6674;49.152;11.918;2022-08-11T15:42:48;2.17;;;1.58;;
13218;SDS011;6674;49.152;11.918;2022-08-11T15:45:37;1.75;;;1.65;;
13218;SDS011;6674;49.152;11.918;2022-08-11T15:48:20;1.52;;;1.42;;
13218;SDS011;6674;49.152;11.918;2022-08-11T15:50:53;1.33;;;1.23;;
13218;SDS011;6674;49.152;11.918;2022-08-11T15:53:25;1.25;;;1.13;;
13218;SDS011;6674;49.152;11.918;2022-08-11T15:55:55;1.60;;;1.40;;
13218;SDS011;6674;49.152;11.918;2022-08-11T15:58:25;1.67;;;1.58;;
13218;SDS011;6674;49.152;11.918;2022-08-11T16:01:15;1.30;;;1.20;;
13218;SDS011;6674;49.152;11.918;2022-08-11T16:04:04;1.40;;;1.30;;
13218;SDS011;6674;49.152;11.918;2022-08-11T16:06:49;1.40;;;1.30;;
13218;SDS011;6674;49.152;11.918;2022-08-11T16:09:20;1.42;;;1.33;;
13218;SDS011;6674;49.152;11.918;2022-08-11T16:11:49;1.30;;;1.20;;
13218;SDS011;6674;49.152;11.918;2022-08-11T16:14:18;1.38;;;1.33;;
13218;SDS011;6674;49.152;11.918;2022-08-11T16:17:08;1.50;;;1.40;;
13218;SDS011;6674;49.152;11.918;2022-08-11T16:19:39;1.20;;;1.10;;
13218;SDS011;6674;49.152;11.918;2022-08-11T16:22:08;1.80;;;1.70;;
13218;SDS011;6674;49.152;11.918;2022-08-11T16:24:37;1.67;;;1.50;;
13218;SDS011;6674;49.152;11.918;2022-08-11T16:27:08;1.65;;;1.55;;
13218;SDS011;6674;49.152;11.918;2022-08-11T16:29:39;1.80;;;1.70;;
13218;SDS011;6674;49.152;11.918;2022-08-11T16:32:08;3.15;;;1.58;;
13218;SDS011;6674;49.152;11.918;2022-08-11T16:34:46;1.50;;;1.40;;